Delta Virtual Airport Information Service

Kahului Airport

ICAO: PHOG Country: United States
Latitude: 20.8986 Longitude: -156.43
Latest Arrival : UAL1141 (A) (KLAX-PHOG) Latest Departure : UAL2803 (D) (PHOG-KSFO)


WX CaptureLIVE
Data provided by noaa.gov | Fetched at 00:23:59

METAR : PHOG 060454Z 05008KT 10SM SCT065 29/19 A2996

TAF :


Runway Data for PHOG
Data provided by openaviationdata.com

Runway ID Mag Var Hdg Length Elevation Surface ILS Freq ILS Id ILS Slope
2 10 24° 7011 ft 18 ft Asphalt 110.1 IOGG 3
5 10 54° 4991 ft 18 ft Asphalt -- -- --
20 10 204° 7011 ft 18 ft Asphalt -- -- --
23 10 234° 4991 ft 18 ft Asphalt -- -- --

Kahului Airport, United States
Use only for reference purposes



Not for navigational purposes.